Time;durP1;ratioP1;P1;durP2;ratioP2;P2;SDS_P1;SDS_P2;PMS_P1;PMS_P2;Temp;Humidity;BMP_temperature;BMP_pressure;BME280_temperature;BME280_humidity;BME280_pressure;Samples;Min_cycle;Max_cycle;Signal;HPM_P1;HPM_P2
2023/07/29 00:00:55;;;;;;;1.05;0.50;;;22.90;74.70;;;;;;2511696;54;20927;-69
2023/07/29 00:03:21;;;;;;;1.20;0.50;;;22.90;74.70;;;;;;2292287;55;20956;-67
2023/07/29 00:05:49;;;;;;;1.27;0.47;;;22.90;74.80;;;;;;2292067;55;20920;-69
2023/07/29 00:08:16;;;;;;;1.08;0.55;;;22.80;74.60;;;;;;2293012;56;20996;-69
2023/07/29 00:10:42;;;;;;;0.90;0.40;;;22.80;74.60;;;;;;2524182;54;20932;-69
2023/07/29 00:13:09;;;;;;;0.80;0.40;;;22.80;74.60;;;;;;2525824;54;21421;-69
2023/07/29 00:15:36;;;;;;;1.42;0.57;;;22.80;74.60;;;;;;2292125;55;21051;-66
2023/07/29 00:18:02;;;;;;;1.27;0.40;;;22.80;74.60;;;;;;2527163;54;20951;-69
2023/07/29 00:20:29;;;;;;;0.90;0.40;;;22.80;74.60;;;;;;2292717;55;20972;-68
2023/07/29 00:22:56;;;;;;;2.67;1.17;;;22.80;74.60;;;;;;2526337;54;20992;-68
2023/07/29 00:25:23;;;;;;;2.60;0.60;;;22.80;74.60;;;;;;2291901;55;21000;-69
2023/07/29 00:27:49;;;;;;;1.02;0.50;;;22.80;74.60;;;;;;2292056;55;20900;-68
2023/07/29 00:30:16;;;;;;;1.50;0.60;;;22.80;74.60;;;;;;2526720;54;20952;-68
2023/07/29 00:32:43;;;;;;;2.55;0.62;;;22.80;74.70;;;;;;2526370;54;20939;-69
2023/07/29 00:35:09;;;;;;;2.17;0.85;;;22.80;74.70;;;;;;2270827;55;20948;-69
2023/07/29 00:37:41;;;;;;;1.12;0.50;;;22.80;74.70;;;;;;2528334;54;21390;-69
2023/07/29 00:40:19;;;;;;;1.58;0.55;;;22.80;74.70;;;;;;2291886;55;20923;-68
2023/07/29 00:42:48;;;;;;;1.27;0.60;;;22.80;74.50;;;;;;2527151;54;21247;-67
2023/07/29 00:45:14;;;;;;;0.85;0.40;;;22.80;74.60;;;;;;2273172;55;20966;-68
2023/07/29 00:47:41;;;;;;;1.02;0.50;;;22.70;74.60;;;;;;2526972;54;20929;-68
2023/07/29 00:50:08;;;;;;;1.37;0.70;;;22.70;74.60;;;;;;2507741;54;20930;-69
2023/07/29 00:52:35;;;;;;;1.42;0.50;;;22.70;74.70;;;;;;2520411;54;20969;-68
2023/07/29 00:55:06;;;;;;;1.00;0.47;;;22.70;74.70;;;;;;2527246;54;20903;-69
2023/07/29 00:57:33;;;;;;;0.90;0.43;;;22.70;74.70;;;;;;2527997;54;20991;-69
2023/07/29 01:00:00;;;;;;;1.90;0.40;;;22.70;74.70;;;;;;2291707;55;21507;-68
2023/07/29 01:02:26;;;;;;;1.60;0.60;;;22.70;74.70;;;;;;2527555;54;20904;-68
2023/07/29 01:04:57;;;;;;;0.93;0.45;;;22.70;74.80;;;;;;2291522;55;20980;-69
2023/07/29 01:07:49;;;;;;;0.95;0.47;;;22.70;74.70;;;;;;2292406;55;20924;-68
2023/07/29 01:11:42;;;;;;;1.58;0.60;;;22.70;74.50;;;;;;2520787;54;20962;-68
2023/07/29 01:15:48;;;;;;;3.22;0.55;;;22.70;73.90;;;;;;2292424;55;20932;-68
2023/07/29 01:18:20;;;;;;;0.90;0.40;;;22.70;73.90;;;;;;2523149;54;20983;-68
2023/07/29 01:20:47;;;;;;;1.33;0.60;;;22.70;74.70;;;;;;2527545;54;21004;-69
2023/07/29 01:23:13;;;;;;;1.12;0.50;;;22.70;74.80;;;;;;2526828;54;21374;-68
2023/07/29 01:25:40;;;;;;;1.00;0.40;;;22.70;74.80;;;;;;2527619;54;20917;-68
2023/07/29 01:28:06;;;;;;;2.65;0.60;;;22.70;74.90;;;;;;2292511;55;20992;-69
2023/07/29 01:30:42;;;;;;;1.12;0.50;;;22.70;74.90;;;;;;2292192;55;20913;-68
2023/07/29 01:33:24;;;;;;;2.53;0.70;;;22.70;74.80;;;;;;2273970;55;21061;-69
2023/07/29 01:35:53;;;;;;;1.20;0.50;;;22.70;74.50;;;;;;2526523;54;21366;-68
2023/07/29 01:38:21;;;;;;;0.90;0.43;;;22.70;74.90;;;;;;2292485;55;21008;-69
2023/07/29 01:40:48;;;;;;;1.33;0.50;;;22.70;74.90;;;;;;2527381;54;21640;-68
2023/07/29 01:43:15;;;;;;;0.95;0.40;;;22.70;74.90;;;;;;2527711;54;20927;-68
2023/07/29 01:45:41;;;;;;;1.92;0.57;;;22.70;74.90;;;;;;2292877;55;20967;-69
2023/07/29 01:48:07;;;;;;;1.50;0.60;;;22.70;74.90;;;;;;2526002;54;20924;-68
2023/07/29 01:50:38;;;;;;;2.65;0.70;;;22.70;74.90;;;;;;2291266;55;21036;-69
2023/07/29 01:53:05;;;;;;;0.95;0.50;;;22.70;74.70;;;;;;2527321;54;21324;-69
2023/07/29 01:55:31;;;;;;;1.45;0.50;;;22.70;74.80;;;;;;2526648;54;21012;-69
2023/07/29 01:57:58;;;;;;;1.23;0.50;;;22.70;74.70;;;;;;2526898;54;20972;-69
2023/07/29 02:00:24;;;;;;;0.98;0.50;;;22.70;74.80;;;;;;2292475;55;20928;-68
2023/07/29 02:02:50;;;;;;;0.95;0.50;;;22.60;74.70;;;;;;2292154;55;20940;-68
2023/07/29 02:05:17;;;;;;;1.30;0.50;;;22.70;74.90;;;;;;2292492;55;21224;-68
2023/07/29 02:07:43;;;;;;;0.88;0.40;;;22.60;74.80;;;;;;2293199;55;20916;-69
2023/07/29 02:10:10;;;;;;;0.80;0.43;;;22.60;74.90;;;;;;2527133;54;21043;-68
2023/07/29 02:12:36;;;;;;;1.10;0.40;;;22.70;75.00;;;;;;2291894;55;21039;-67
2023/07/29 02:15:05;;;;;;;2.20;0.75;;;22.70;75.00;;;;;;2527325;54;21044;-69
2023/07/29 02:17:37;;;;;;;1.87;0.70;;;22.70;75.10;;;;;;2527566;54;20979;-68
2023/07/29 02:20:04;;;;;;;1.80;0.65;;;22.70;75.00;;;;;;2524923;54;21824;-69
2023/07/29 02:22:30;;;;;;;1.27;0.47;;;22.70;75.10;;;;;;2273757;55;21008;-68
2023/07/29 02:24:56;;;;;;;1.15;0.50;;;22.70;75.10;;;;;;2526916;54;21798;-69
2023/07/29 02:27:26;;;;;;;1.87;0.60;;;22.70;75.20;;;;;;2513517;54;20946;-68
2023/07/29 02:29:53;;;;;;;0.93;0.55;;;22.70;75.20;;;;;;2515270;54;21776;-68
2023/07/29 02:32:20;;;;;;;2.80;0.65;;;22.70;75.20;;;;;;2291746;55;20991;-69
2023/07/29 02:34:47;;;;;;;1.58;0.70;;;22.70;75.20;;;;;;2290690;55;20913;-68
2023/07/29 02:37:14;;;;;;;1.35;0.62;;;22.60;75.10;;;;;;2274911;55;20954;-68
2023/07/29 02:39:41;;;;;;;1.42;0.60;;;22.70;75.30;;;;;;2525311;54;20976;-68
2023/07/29 02:42:09;;;;;;;1.20;0.50;;;22.70;75.30;;;;;;2526758;54;21024;-69
2023/07/29 02:44:35;;;;;;;3.28;0.52;;;22.70;75.30;;;;;;2527611;54;20924;-68
2023/07/29 02:47:01;;;;;;;2.05;0.37;;;22.70;75.30;;;;;;2526865;54;20920;-69
2023/07/29 02:49:29;;;;;;;2.67;0.60;;;22.70;75.30;;;;;;2527849;54;20952;-69
2023/07/29 02:51:55;;;;;;;1.17;0.50;;;22.70;75.30;;;;;;2527074;54;20928;-69
2023/07/29 02:54:21;;;;;;;0.80;0.40;;;22.80;75.40;;;;;;2291615;55;20932;-70
2023/07/29 02:56:47;;;;;;;0.88;0.47;;;22.70;75.30;;;;;;2527192;54;21001;-69
2023/07/29 02:59:14;;;;;;;1.17;0.50;;;22.80;75.40;;;;;;2526778;54;20976;-69
2023/07/29 03:01:40;;;;;;;1.23;0.55;;;22.80;75.40;;;;;;2292192;55;21771;-69
2023/07/29 03:04:07;;;;;;;1.52;0.60;;;22.80;75.40;;;;;;2526473;54;21552;-71
2023/07/29 03:06:34;;;;;;;1.58;0.68;;;22.80;75.30;;;;;;2292420;55;20976;-71
2023/07/29 03:09:00;;;;;;;0.93;0.40;;;22.80;75.30;;;;;;2292171;55;21751;-71
2023/07/29 03:11:27;;;;;;;1.20;0.55;;;22.80;75.20;;;;;;2292604;55;20949;-70
2023/07/29 03:13:53;;;;;;;1.52;0.55;;;22.80;75.20;;;;;;2527065;54;20912;-70
2023/07/29 03:16:20;;;;;;;1.70;0.60;;;22.80;75.10;;;;;;2527202;54;21000;-69
2023/07/29 03:18:47;;;;;;;1.40;0.60;;;22.80;75.10;;;;;;2526891;54;21020;-70
2023/07/29 03:21:14;;;;;;;1.20;0.50;;;22.80;75.10;;;;;;2527767;54;20913;-69
2023/07/29 03:23:40;;;;;;;1.65;0.50;;;22.80;75.20;;;;;;2528385;54;20972;-70
2023/07/29 03:26:10;;;;;;;1.60;0.68;;;22.80;75.00;;;;;;2292121;55;21202;-70
2023/07/29 03:28:38;;;;;;;1.87;0.80;;;22.80;75.00;;;;;;2292424;55;20959;-69
2023/07/29 03:31:04;;;;;;;2.83;0.90;;;22.80;74.90;;;;;;2527665;54;20991;-71
2023/07/29 03:33:35;;;;;;;2.20;0.90;;;22.80;74.70;;;;;;2528555;54;20948;-70
2023/07/29 03:36:02;;;;;;;1.77;0.70;;;22.70;74.50;;;;;;2292505;55;21397;-69
2023/07/29 03:38:28;;;;;;;1.85;0.70;;;22.70;74.70;;;;;;2293011;56;21007;-69
2023/07/29 03:40:56;;;;;;;1.83;0.70;;;22.70;74.80;;;;;;2526081;54;20975;-68
2023/07/29 03:43:23;;;;;;;1.90;0.75;;;22.70;75.00;;;;;;2292911;55;21799;-70
2023/07/29 03:45:49;;;;;;;1.87;0.65;;;22.70;75.10;;;;;;2527693;54;20948;-69
2023/07/29 03:48:16;;;;;;;2.17;0.68;;;22.70;75.20;;;;;;2527824;54;21013;-69
2023/07/29 03:50:42;;;;;;;2.70;0.85;;;22.60;75.20;;;;;;2527214;54;20976;-69
2023/07/29 03:53:09;;;;;;;2.53;0.90;;;22.70;75.40;;;;;;2527250;54;20960;-69
2023/07/29 03:55:37;;;;;;;2.72;0.90;;;22.60;75.40;;;;;;2526974;54;21777;-70
2023/07/29 03:58:04;;;;;;;1.77;0.77;;;22.60;75.50;;;;;;2292189;55;21936;-70
2023/07/29 04:00:30;;;;;;;1.62;0.68;;;22.60;75.60;;;;;;2527990;54;20942;-69
2023/07/29 04:02:57;;;;;;;2.60;0.80;;;22.60;75.70;;;;;;2365255;54;2768416;-68
2023/07/29 04:05:26;;;;;;;1.62;0.70;;;22.60;75.70;;;;;;2501582;54;21111;-67
2023/07/29 04:07:54;;;;;;;1.75;0.70;;;22.60;75.80;;;;;;2292072;55;20944;-67
2023/07/29 04:10:20;;;;;;;3.03;0.90;;;22.60;75.90;;;;;;2292320;56;21905;-69
2023/07/29 04:12:47;;;;;;;2.20;0.98;;;22.60;75.90;;;;;;2292162;56;20980;-67
2023/07/29 04:15:14;;;;;;;2.12;0.90;;;22.60;75.90;;;;;;2526546;54;20999;-69
2023/07/29 04:17:41;;;;;;;2.10;0.85;;;22.60;75.90;;;;;;2291724;55;20913;-70
2023/07/29 04:20:11;;;;;;;2.30;0.90;;;22.60;76.00;;;;;;2526964;54;20904;-69
2023/07/29 04:22:37;;;;;;;1.73;0.80;;;22.60;76.00;;;;;;2292226;55;20948;-69
2023/07/29 04:25:05;;;;;;;1.98;0.88;;;22.60;76.00;;;;;;2527344;54;20928;-69
2023/07/29 04:27:31;;;;;;;2.20;0.85;;;22.60;76.00;;;;;;2292073;55;21859;-69
2023/07/29 04:29:58;;;;;;;2.42;0.90;;;22.60;76.10;;;;;;2291923;55;20929;-69
2023/07/29 04:32:25;;;;;;;1.87;0.80;;;22.60;76.10;;;;;;2292305;56;20992;-69
2023/07/29 04:34:51;;;;;;;3.45;1.05;;;22.60;76.20;;;;;;2292486;55;20968;-68
2023/07/29 04:37:19;;;;;;;1.95;0.73;;;22.60;76.10;;;;;;2509783;54;21431;-68
2023/07/29 04:39:46;;;;;;;1.60;0.55;;;22.60;76.00;;;;;;2279047;55;20988;-69
2023/07/29 04:42:12;;;;;;;1.85;0.80;;;22.60;76.10;;;;;;2527281;54;20959;-69
2023/07/29 04:44:41;;;;;;;1.85;0.77;;;22.50;76.00;;;;;;2526993;54;20948;-69
2023/07/29 04:47:07;;;;;;;1.60;0.75;;;22.60;76.20;;;;;;2526540;54;20940;-69
2023/07/29 04:49:34;;;;;;;2.15;0.90;;;22.60;76.30;;;;;;2292213;55;21437;-68
2023/07/29 04:52:00;;;;;;;1.70;0.70;;;22.60;76.30;;;;;;2527048;54;20929;-70
2023/07/29 04:54:27;;;;;;;2.70;0.70;;;22.60;76.30;;;;;;2291179;55;20920;-70
2023/07/29 04:56:54;;;;;;;1.80;0.77;;;22.60;76.40;;;;;;2293495;55;20968;-70
2023/07/29 04:59:20;;;;;;;2.62;1.10;;;22.70;76.50;;;;;;2291028;56;21063;-67
2023/07/29 05:01:47;;;;;;;2.28;0.73;;;22.60;76.40;;;;;;2527347;54;20986;-68
2023/07/29 05:04:13;;;;;;;2.12;0.80;;;22.70;76.60;;;;;;2527759;54;20912;-69
2023/07/29 05:06:39;;;;;;;2.55;0.82;;;22.70;76.70;;;;;;2526987;54;20948;-69
2023/07/29 05:09:13;;;;;;;2.15;0.90;;;22.70;76.70;;;;;;2291457;55;20960;-69
2023/07/29 05:11:39;;;;;;;1.73;0.73;;;22.70;76.50;;;;;;2291932;55;20976;-69
2023/07/29 05:14:06;;;;;;;1.52;0.70;;;22.70;76.70;;;;;;2526733;54;21004;-70
2023/07/29 05:16:32;;;;;;;1.73;0.70;;;22.70;76.80;;;;;;2292648;55;20980;-70
2023/07/29 05:18:59;;;;;;;1.90;0.90;;;22.70;76.80;;;;;;2527542;54;20960;-68
2023/07/29 05:21:27;;;;;;;1.17;0.60;;;22.70;76.80;;;;;;2526998;54;20952;-69
2023/07/29 05:23:54;;;;;;;1.85;0.90;;;22.70;76.90;;;;;;2291968;56;20905;-69
2023/07/29 05:26:21;;;;;;;1.85;0.62;;;22.70;76.90;;;;;;2521846;54;20944;-70
2023/07/29 05:28:50;;;;;;;2.10;0.90;;;22.70;76.90;;;;;;2526789;54;21004;-70
2023/07/29 05:31:17;;;;;;;1.87;0.73;;;22.80;77.00;;;;;;2526358;54;20937;-71
2023/07/29 05:33:44;;;;;;;2.12;0.90;;;22.80;77.00;;;;;;2526243;54;20904;-72
2023/07/29 05:36:10;;;;;;;2.10;0.80;;;22.80;76.70;;;;;;2522423;54;21046;-70
2023/07/29 05:38:36;;;;;;;2.05;0.90;;;22.80;76.30;;;;;;2292878;55;21672;-71
2023/07/29 05:41:05;;;;;;;1.73;0.70;;;22.80;76.30;;;;;;2527482;54;20973;-69
2023/07/29 05:43:31;;;;;;;2.92;1.08;;;22.80;76.30;;;;;;2527668;54;20960;-71
2023/07/29 05:46:00;;;;;;;1.60;0.70;;;22.80;76.20;;;;;;2515420;54;20949;-71
2023/07/29 05:48:30;;;;;;;2.83;0.93;;;22.70;76.00;;;;;;2496315;55;20914;-72
2023/07/29 05:50:58;;;;;;;4.55;1.23;;;22.70;75.90;;;;;;2519524;54;20936;-71
2023/07/29 05:53:25;;;;;;;2.80;1.10;;;22.70;75.90;;;;;;2527630;54;22191;-71
2023/07/29 05:55:51;;;;;;;2.25;0.80;;;22.70;76.10;;;;;;2527607;54;20912;-72
2023/07/29 05:58:19;;;;;;;2.12;1.05;;;22.70;76.10;;;;;;2292397;55;20988;-72
2023/07/29 06:00:46;;;;;;;2.53;0.95;;;22.60;76.10;;;;;;2527793;54;20964;-72
2023/07/29 06:03:12;;;;;;;4.05;1.08;;;22.60;76.10;;;;;;2283927;55;20937;-71
2023/07/29 06:05:39;;;;;;;2.12;0.88;;;22.60;76.20;;;;;;2515947;54;20976;-71
2023/07/29 06:08:08;;;;;;;2.42;1.10;;;22.60;76.30;;;;;;2293086;55;20916;-69
2023/07/29 06:10:35;;;;;;;3.65;1.20;;;22.60;76.30;;;;;;2292729;55;20948;-71
2023/07/29 06:13:02;;;;;;;3.05;1.20;;;22.60;76.40;;;;;;2526618;54;20937;-71
2023/07/29 06:15:29;;;;;;;3.65;1.30;;;22.60;76.50;;;;;;2526912;54;20928;-70
2023/07/29 06:17:56;;;;;;;2.37;0.93;;;22.60;76.60;;;;;;2292402;55;21000;-71
2023/07/29 06:20:22;;;;;;;1.77;0.90;;;22.60;76.80;;;;;;2504028;54;20912;-71
2023/07/29 06:22:49;;;;;;;3.92;1.20;;;22.50;76.80;;;;;;2291567;55;21358;-72
2023/07/29 06:25:15;;;;;;;2.30;0.98;;;22.60;77.00;;;;;;2527111;54;20953;-71
2023/07/29 06:27:43;;;;;;;2.33;1.08;;;22.60;77.10;;;;;;2527311;54;21909;-71
2023/07/29 06:30:10;;;;;;;2.17;0.82;;;22.60;77.20;;;;;;2526626;54;20924;-71
2023/07/29 06:32:36;;;;;;;2.60;1.10;;;22.60;77.30;;;;;;2291825;55;21093;-68
2023/07/29 06:35:03;;;;;;;2.17;0.90;;;22.60;77.40;;;;;;2291964;55;21731;-71
2023/07/29 06:37:33;;;;;;;2.30;1.00;;;22.60;77.50;;;;;;2527405;54;21789;-71
2023/07/29 06:39:59;;;;;;;2.53;1.30;;;22.60;77.50;;;;;;2526859;54;20991;-70
2023/07/29 06:42:26;;;;;;;2.70;1.40;;;22.60;77.50;;;;;;2292333;55;21425;-71
2023/07/29 06:44:52;;;;;;;2.20;1.12;;;22.70;77.70;;;;;;2526584;54;20904;-71
2023/07/29 06:47:19;;;;;;;2.28;0.95;;;22.70;77.70;;;;;;2526920;54;20904;-71
2023/07/29 06:49:46;;;;;;;1.55;0.70;;;22.70;77.80;;;;;;2526677;54;20940;-70
2023/07/29 06:52:13;;;;;;;2.05;0.85;;;22.70;77.90;;;;;;2293431;55;20972;-69
2023/07/29 06:54:39;;;;;;;1.60;0.80;;;22.70;78.00;;;;;;2527304;54;20971;-70
2023/07/29 06:57:06;;;;;;;2.62;0.90;;;22.80;78.20;;;;;;2527144;54;20933;-70
2023/07/29 06:59:33;;;;;;;1.75;0.70;;;22.80;78.40;;;;;;2527606;54;20924;-71
2023/07/29 07:02:00;;;;;;;1.62;0.73;;;22.80;78.40;;;;;;2527619;54;21407;-72
2023/07/29 07:04:26;;;;;;;1.42;0.70;;;22.90;78.70;;;;;;2527685;54;20904;-71
2023/07/29 07:06:53;;;;;;;1.77;0.88;;;22.90;78.70;;;;;;2292198;55;20936;-71
2023/07/29 07:09:20;;;;;;;2.10;0.80;;;22.90;78.70;;;;;;2291836;55;21823;-70
2023/07/29 07:11:49;;;;;;;1.85;0.70;;;23.00;78.70;;;;;;2527085;54;20961;-70
2023/07/29 07:14:15;;;;;;;2.17;1.00;;;23.10;78.70;;;;;;2500958;54;21482;-74
2023/07/29 07:16:42;;;;;;;1.95;0.77;;;23.10;78.90;;;;;;2522450;54;21447;-75
2023/07/29 07:19:10;;;;;;;2.35;1.08;;;23.10;78.90;;;;;;2279297;55;21799;-72
2023/07/29 07:21:36;;;;;;;2.00;0.85;;;23.20;79.10;;;;;;2519921;54;20936;-70
2023/07/29 07:24:03;;;;;;;1.62;0.80;;;23.20;79.20;;;;;;2275154;55;21517;-71
2023/07/29 07:26:29;;;;;;;1.67;0.80;;;23.30;79.40;;;;;;2516093;54;22250;-71
2023/07/29 07:28:57;;;;;;;2.10;1.00;;;23.40;79.70;;;;;;2510817;54;20936;-70
2023/07/29 07:31:25;;;;;;;1.90;0.80;;;23.40;79.90;;;;;;2524966;54;20904;-73
2023/07/29 07:33:51;;;;;;;2.03;0.90;;;23.50;80.10;;;;;;2495625;55;20982;-73
2023/07/29 07:36:17;;;;;;;2.62;1.27;;;23.50;80.10;;;;;;2288084;55;21848;-71
2023/07/29 07:38:44;;;;;;;3.03;0.90;;;23.60;80.20;;;;;;2527609;54;20917;-70
2023/07/29 07:41:11;;;;;;;2.25;1.00;;;23.70;80.40;;;;;;2527324;54;21004;-73
2023/07/29 07:43:37;;;;;;;2.60;1.12;;;23.80;80.60;;;;;;2527439;54;21393;-74
2023/07/29 07:46:04;;;;;;;2.37;1.00;;;23.80;80.50;;;;;;2291754;55;20904;-74
2023/07/29 07:48:33;;;;;;;2.40;1.00;;;23.90;80.60;;;;;;2292239;56;22275;-73
2023/07/29 07:51:00;;;;;;;2.70;1.20;;;24.00;80.80;;;;;;2291707;56;20935;-74
2023/07/29 07:53:30;;;;;;;2.78;1.23;;;24.10;81.00;;;;;;2291419;55;20957;-72
2023/07/29 07:55:58;;;;;;;2.85;1.35;;;24.20;81.10;;;;;;2527150;54;20996;-74
2023/07/29 07:58:30;;;;;;;2.33;1.17;;;24.20;81.00;;;;;;2292832;55;20920;-72
2023/07/29 08:01:06;;;;;;;2.42;0.90;;;24.30;81.10;;;;;;2527479;54;21867;-71
2023/07/29 08:03:33;;;;;;;2.40;1.05;;;24.50;81.10;;;;;;2292591;55;20964;-71
2023/07/29 08:05:59;;;;;;;2.50;1.40;;;24.50;81.20;;;;;;2504283;54;20956;-71
2023/07/29 08:08:26;;;;;;;2.78;1.30;;;24.60;80.80;;;;;;2292058;55;20884;-70
2023/07/29 08:10:53;;;;;;;2.67;1.30;;;24.70;80.50;;;;;;2512559;54;21014;-71
2023/07/29 08:13:23;;;;;;;2.70;1.30;;;24.80;80.30;;;;;;2516480;54;20989;-71
2023/07/29 08:15:50;;;;;;;3.85;1.30;;;24.80;80.00;;;;;;2292263;55;20942;-71
2023/07/29 08:18:22;;;;;;;2.15;1.05;;;24.90;79.90;;;;;;2293324;56;20913;-72
2023/07/29 08:20:57;;;;;;;2.50;1.50;;;24.90;79.60;;;;;;2527283;54;20949;-69
2023/07/29 08:23:27;;;;;;;2.50;1.27;;;25.00;79.50;;;;;;2526910;54;21785;-69
2023/07/29 08:25:56;;;;;;;2.80;1.30;;;25.00;79.50;;;;;;2518684;54;21815;-70
2023/07/29 08:28:23;;;;;;;2.72;1.30;;;25.10;79.70;;;;;;2509368;54;20920;-67
2023/07/29 08:30:49;;;;;;;2.28;1.20;;;25.10;79.70;;;;;;2528152;54;20936;-70
2023/07/29 08:33:15;;;;;;;2.70;1.37;;;25.20;79.80;;;;;;2513546;54;21518;-69
2023/07/29 08:35:41;;;;;;;2.85;1.45;;;25.20;79.70;;;;;;2282230;55;20940;-70
2023/07/29 08:38:11;;;;;;;2.50;1.20;;;25.20;79.70;;;;;;2500871;54;20985;-69
2023/07/29 08:40:39;;;;;;;3.58;1.20;;;25.30;79.80;;;;;;2286064;55;21073;-70
2023/07/29 08:43:06;;;;;;;2.80;1.40;;;25.40;79.90;;;;;;2282169;55;21002;-70
2023/07/29 08:45:37;;;;;;;4.15;1.05;;;25.40;79.90;;;;;;2291292;55;20948;-69
2023/07/29 08:48:07;;;;;;;2.33;1.20;;;25.50;80.00;;;;;;2292137;56;20928;-70
2023/07/29 08:50:39;;;;;;;4.47;1.70;;;25.50;79.80;;;;;;2291888;55;20928;-70
2023/07/29 08:53:07;;;;;;;2.85;1.45;;;25.60;79.90;;;;;;2525511;54;21765;-71
2023/07/29 08:55:34;;;;;;;3.92;1.45;;;25.70;79.80;;;;;;2526738;54;20989;-69
2023/07/29 08:58:03;;;;;;;3.15;1.35;;;25.70;79.70;;;;;;2280894;55;20985;-70
2023/07/29 09:00:30;;;;;;;3.25;1.40;;;25.70;79.60;;;;;;2518004;54;21000;-70
2023/07/29 09:03:01;;;;;;;3.42;1.45;;;25.80;79.50;;;;;;2291246;55;21472;-70
2023/07/29 09:05:28;;;;;;;2.65;1.48;;;25.90;79.10;;;;;;2527818;54;21084;-68
2023/07/29 09:07:54;;;;;;;2.60;1.20;;;25.90;79.10;;;;;;2522685;54;20944;-67
2023/07/29 09:10:23;;;;;;;2.53;1.33;;;26.00;79.40;;;;;;2273977;55;20969;-68
2023/07/29 09:12:49;;;;;;;3.05;1.50;;;26.00;79.40;;;;;;2526670;54;20960;-67
2023/07/29 09:15:27;;;;;;;2.50;1.37;;;25.90;78.90;;;;;;2292481;55;21012;-67
2023/07/29 09:17:53;;;;;;;2.72;1.27;;;26.10;78.30;;;;;;2526609;54;21430;-70
2023/07/29 09:20:26;;;;;;;2.80;1.30;;;26.20;78.80;;;;;;2527303;54;20968;-68
2023/07/29 09:22:58;;;;;;;3.28;1.33;;;26.20;77.90;;;;;;2525451;54;20963;-69
2023/07/29 09:25:29;;;;;;;2.70;1.53;;;26.20;78.10;;;;;;2291833;55;20932;-68
2023/07/29 09:28:13;;;;;;;2.60;1.40;;;26.30;78.00;;;;;;2292282;55;21565;-66
2023/07/29 09:30:44;;;;;;;2.60;1.40;;;26.30;77.50;;;;;;2292379;55;21024;-69
2023/07/29 09:33:11;;;;;;;2.75;1.40;;;26.30;77.90;;;;;;2273114;55;20936;-69
2023/07/29 09:35:38;;;;;;;2.62;1.50;;;26.30;77.80;;;;;;2276082;55;20954;-68
2023/07/29 09:38:07;;;;;;;2.58;1.37;;;26.40;77.60;;;;;;2514942;54;21439;-69
2023/07/29 09:40:37;;;;;;;3.47;2.17;;;26.40;77.70;;;;;;2278461;55;21614;-71
2023/07/29 09:43:04;;;;;;;3.70;1.87;;;26.40;77.10;;;;;;2291897;55;20940;-69
2023/07/29 09:45:30;;;;;;;3.42;1.80;;;26.40;77.00;;;;;;2527476;54;20904;-70
2023/07/29 09:47:57;;;;;;;3.33;1.60;;;26.40;76.80;;;;;;2506795;54;20945;-68
2023/07/29 09:50:24;;;;;;;3.03;1.42;;;26.50;76.80;;;;;;2522669;54;20928;-70
2023/07/29 09:52:51;;;;;;;4.28;1.55;;;26.50;77.10;;;;;;2292185;55;20992;-71
2023/07/29 09:55:20;;;;;;;2.40;1.25;;;26.40;76.10;;;;;;2527317;54;21851;-70
2023/07/29 09:57:47;;;;;;;2.58;1.17;;;26.50;76.10;;;;;;2291751;55;21410;-71
2023/07/29 10:00:14;;;;;;;3.03;1.42;;;26.40;76.00;;;;;;2292760;55;21242;-70
2023/07/29 10:02:41;;;;;;;4.53;1.55;;;26.40;76.10;;;;;;2291797;55;20995;-69
2023/07/29 10:05:09;;;;;;;2.45;1.30;;;26.40;76.10;;;;;;2527473;54;20924;-70
2023/07/29 10:07:40;;;;;;;3.12;1.40;;;26.40;76.10;;;;;;2292567;56;21682;-68
2023/07/29 10:10:07;;;;;;;2.45;1.17;;;26.40;76.10;;;;;;2292441;55;20948;-69
2023/07/29 10:12:35;;;;;;;3.03;1.30;;;26.40;76.40;;;;;;2527578;54;20944;-71
2023/07/29 10:15:06;;;;;;;2.60;1.20;;;26.50;76.80;;;;;;2524641;54;20948;-71
2023/07/29 10:17:34;;;;;;;3.03;1.70;;;26.50;76.50;;;;;;2273372;55;20908;-68
2023/07/29 10:20:00;;;;;;;3.17;1.70;;;26.50;76.60;;;;;;2527148;54;21068;-70
2023/07/29 10:22:28;;;;;;;2.15;1.15;;;26.50;76.60;;;;;;2527874;54;21296;-70
2023/07/29 10:25:11;;;;;;;2.87;1.35;;;26.50;76.50;;;;;;2292265;55;20881;-72
2023/07/29 10:27:57;;;;;;;2.78;1.20;;;26.50;76.40;;;;;;2526845;54;20956;-70
2023/07/29 10:30:24;;;;;;;2.50;1.45;;;26.50;75.70;;;;;;2527277;54;21401;-68
2023/07/29 10:32:52;;;;;;;2.35;1.25;;;26.50;76.50;;;;;;2291911;55;20909;-69
2023/07/29 10:35:26;;;;;;;2.33;1.23;;;26.50;76.40;;;;;;2527007;54;20936;-69
2023/07/29 10:37:53;;;;;;;2.37;1.00;;;26.60;76.30;;;;;;2514011;54;21035;-70
2023/07/29 10:40:22;;;;;;;2.60;1.48;;;26.60;76.30;;;;;;2281969;55;20927;-69
2023/07/29 10:43:17;;;;;;;2.30;1.20;;;26.60;76.40;;;;;;2509704;54;20937;-70
2023/07/29 10:45:48;;;;;;;2.33;1.25;;;26.70;75.20;;;;;;2526169;54;20916;-70
2023/07/29 10:48:40;;;;;;;2.40;1.23;;;26.70;76.40;;;;;;2284313;55;20948;-71
2023/07/29 10:51:41;;;;;;;2.87;1.50;;;26.70;75.80;;;;;;2519171;54;20964;-71
2023/07/29 10:54:16;;;;;;;2.80;1.27;;;26.70;74.60;;;;;;2280941;55;20981;-71
2023/07/29 10:56:48;;;;;;;2.37;1.40;;;26.80;75.40;;;;;;2285447;55;20965;-71
2023/07/29 10:59:37;;;;;;;2.25;1.02;;;26.80;75.40;;;;;;2498279;55;21033;-70
2023/07/29 11:02:15;;;;;;;3.55;1.40;;;26.80;74.80;;;;;;2515770;54;21012;-72
2023/07/29 11:05:04;;;;;;;2.30;1.20;;;26.80;75.30;;;;;;2280821;55;20985;-72
2023/07/29 11:07:30;;;;;;;2.33;1.10;;;26.90;75.50;;;;;;2522769;54;21461;-71
2023/07/29 11:10:04;;;;;;;2.30;1.20;;;26.90;75.70;;;;;;2292171;55;20905;-70
2023/07/29 11:12:52;;;;;;;2.17;1.08;;;26.90;74.90;;;;;;2518991;54;20982;-70
2023/07/29 11:15:30;;;;;;;2.08;1.02;;;26.90;73.60;;;;;;2491707;55;21014;-71
2023/07/29 11:18:03;;;;;;;1.77;0.82;;;27.00;74.00;;;;;;2291169;55;20954;-72
2023/07/29 11:20:31;;;;;;;2.10;0.93;;;27.00;74.00;;;;;;2513591;54;21037;-72
2023/07/29 11:23:01;;;;;;;2.35;1.17;;;27.00;74.00;;;;;;2278997;55;21009;-71
2023/07/29 11:25:38;;;;;;;2.65;1.30;;;26.90;73.30;;;;;;2527811;54;20976;-72
2023/07/29 11:28:13;;;;;;;2.70;1.10;;;27.00;73.10;;;;;;2527258;54;21099;-74
2023/07/29 11:30:49;;;;;;;2.30;0.88;;;27.00;73.20;;;;;;2292354;55;20975;-73
2023/07/29 11:33:21;;;;;;;2.65;1.20;;;27.00;73.10;;;;;;2510808;54;22028;-72
2023/07/29 11:35:50;;;;;;;2.28;1.15;;;27.00;72.70;;;;;;2513475;54;20979;-72
2023/07/29 11:38:19;;;;;;;2.15;1.10;;;27.00;72.70;;;;;;2293601;55;21524;-72
2023/07/29 11:40:59;;;;;;;2.40;1.10;;;27.00;72.00;;;;;;2526919;54;20948;-73
2023/07/29 11:43:26;;;;;;;2.37;1.20;;;27.00;70.80;;;;;;2527521;54;20949;-72
2023/07/29 11:45:53;;;;;;;2.47;1.15;;;26.90;72.50;;;;;;2527645;54;20916;-72
2023/07/29 11:48:30;;;;;;;2.72;1.20;;;26.90;72.40;;;;;;2509225;54;21012;-71
2023/07/29 11:50:58;;;;;;;2.03;0.93;;;26.90;71.70;;;;;;2494726;54;21009;-72
2023/07/29 11:53:27;;;;;;;2.20;1.10;;;26.90;72.90;;;;;;2527695;54;21436;-71
2023/07/29 11:55:54;;;;;;;2.25;1.25;;;26.90;73.20;;;;;;2527177;54;20936;-72
2023/07/29 11:58:21;;;;;;;2.60;1.27;;;26.90;72.70;;;;;;2527612;54;20996;-71
2023/07/29 12:00:50;;;;;;;2.92;1.37;;;26.80;72.80;;;;;;2527640;54;21395;-72
2023/07/29 12:03:17;;;;;;;2.80;1.45;;;26.90;72.90;;;;;;2516509;54;21034;-70
2023/07/29 12:06:18;;;;;;;3.28;1.12;;;26.90;73.30;;;;;;2512262;54;21934;-74
2023/07/29 12:08:45;;;;;;;2.50;1.30;;;26.90;71.50;;;;;;2292594;55;20970;-72
2023/07/29 12:11:11;;;;;;;2.17;1.10;;;26.90;73.30;;;;;;2527464;54;20991;-72
2023/07/29 12:13:38;;;;;;;2.00;1.00;;;26.90;73.20;;;;;;2526224;54;20920;-72
2023/07/29 12:16:04;;;;;;;2.50;1.10;;;26.90;73.20;;;;;;2526304;54;20968;-72
2023/07/29 12:18:35;;;;;;;2.50;1.02;;;26.90;73.00;;;;;;2520766;54;20997;-72
2023/07/29 12:21:01;;;;;;;3.67;1.10;;;26.90;72.60;;;;;;2508994;54;21420;-72
2023/07/29 12:23:28;;;;;;;2.00;1.00;;;26.90;72.80;;;;;;2292152;55;20936;-72
2023/07/29 12:25:58;;;;;;;2.30;1.10;;;26.90;72.60;;;;;;2291998;56;20940;-72
2023/07/29 12:28:25;;;;;;;2.10;1.00;;;26.90;72.10;;;;;;2291816;55;20944;-72
2023/07/29 12:30:55;;;;;;;2.30;1.08;;;26.90;72.50;;;;;;2515691;54;20954;-72
2023/07/29 12:33:35;;;;;;;2.10;1.00;;;27.00;72.10;;;;;;2509431;54;20921;-72
2023/07/29 12:36:02;;;;;;;2.37;1.10;;;27.00;70.90;;;;;;2291591;55;20928;-73
2023/07/29 12:38:29;;;;;;;2.10;0.98;;;27.00;72.70;;;;;;2527021;54;21422;-72
2023/07/29 12:40:56;;;;;;;2.15;1.10;;;27.00;72.70;;;;;;2526914;54;20929;-72
2023/07/29 12:43:22;;;;;;;2.20;0.98;;;27.00;72.90;;;;;;2291092;55;20940;-72
2023/07/29 12:45:52;;;;;;;2.33;1.12;;;27.10;73.00;;;;;;2290578;55;20960;-71
2023/07/29 12:48:18;;;;;;;2.87;1.10;;;27.10;72.40;;;;;;2527926;54;20955;-71
2023/07/29 12:50:44;;;;;;;1.98;1.08;;;27.10;72.80;;;;;;2292547;55;21004;-71
2023/07/29 12:53:12;;;;;;;2.20;0.90;;;27.20;72.80;;;;;;2499712;54;21349;-72
2023/07/29 12:55:39;;;;;;;2.10;1.10;;;27.20;72.70;;;;;;2527420;54;20964;-72
2023/07/29 12:58:07;;;;;;;2.40;1.08;;;27.20;72.50;;;;;;2524472;54;20920;-72